sensor_id;sensor_type;location;lat;lon;timestamp;P1;durP1;ratioP1;P2;durP2;ratioP2
14789;SDS011;7486;51.010;10.366;2023-04-30T00:01:11;11.47;;;10.37;;
14789;SDS011;7486;51.010;10.366;2023-04-30T00:03:56;11.70;;;10.50;;
14789;SDS011;7486;51.010;10.366;2023-04-30T00:06:42;10.97;;;9.87;;
14789;SDS011;7486;51.010;10.366;2023-04-30T00:09:28;10.50;;;9.50;;
14789;SDS011;7486;51.010;10.366;2023-04-30T00:12:13;9.70;;;8.70;;
14789;SDS011;7486;51.010;10.366;2023-04-30T00:14:58;8.93;;;8.03;;
14789;SDS011;7486;51.010;10.366;2023-04-30T00:17:43;9.13;;;8.20;;
14789;SDS011;7486;51.010;10.366;2023-04-30T00:20:29;9.53;;;8.33;;
14789;SDS011;7486;51.010;10.366;2023-04-30T00:23:14;8.73;;;7.90;;
14789;SDS011;7486;51.010;10.366;2023-04-30T00:25:59;10.20;;;7.63;;
14789;SDS011;7486;51.010;10.366;2023-04-30T00:28:45;8.97;;;8.07;;
14789;SDS011;7486;51.010;10.366;2023-04-30T00:31:31;7.67;;;6.97;;
14789;SDS011;7486;51.010;10.366;2023-04-30T00:34:16;9.77;;;7.20;;
14789;SDS011;7486;51.010;10.366;2023-04-30T00:37:01;7.53;;;6.77;;
14789;SDS011;7486;51.010;10.366;2023-04-30T00:39:46;8.07;;;7.23;;
14789;SDS011;7486;51.010;10.366;2023-04-30T00:42:32;7.57;;;6.77;;
14789;SDS011;7486;51.010;10.366;2023-04-30T00:45:17;7.90;;;7.10;;
14789;SDS011;7486;51.010;10.366;2023-04-30T00:48:02;8.37;;;7.17;;
14789;SDS011;7486;51.010;10.366;2023-04-30T00:50:48;7.53;;;6.83;;
14789;SDS011;7486;51.010;10.366;2023-04-30T00:53:33;8.63;;;6.73;;
14789;SDS011;7486;51.010;10.366;2023-04-30T00:56:19;7.57;;;6.80;;
14789;SDS011;7486;51.010;10.366;2023-04-30T00:59:04;7.17;;;6.47;;
14789;SDS011;7486;51.010;10.366;2023-04-30T01:01:49;7.23;;;6.53;;
14789;SDS011;7486;51.010;10.366;2023-04-30T01:04:35;7.27;;;6.53;;
14789;SDS011;7486;51.010;10.366;2023-04-30T01:07:20;7.07;;;6.30;;
14789;SDS011;7486;51.010;10.366;2023-04-30T01:10:06;7.77;;;6.80;;
14789;SDS011;7486;51.010;10.366;2023-04-30T01:13:05;8.50;;;7.30;;
14789;SDS011;7486;51.010;10.366;2023-04-30T01:16:05;10.87;;;7.00;;
14789;SDS011;7486;51.010;10.366;2023-04-30T01:19:01;7.70;;;6.87;;
14789;SDS011;7486;51.010;10.366;2023-04-30T01:21:53;8.77;;;7.63;;
14789;SDS011;7486;51.010;10.366;2023-04-30T01:28:01;8.83;;;7.43;;
14789;SDS011;7486;51.010;10.366;2023-04-30T01:30:47;10.53;;;8.10;;
14789;SDS011;7486;51.010;10.366;2023-04-30T01:33:32;9.33;;;7.83;;
14789;SDS011;7486;51.010;10.366;2023-04-30T01:36:36;10.63;;;8.17;;
14789;SDS011;7486;51.010;10.366;2023-04-30T01:40:01;9.70;;;7.67;;
14789;SDS011;7486;51.010;10.366;2023-04-30T01:43:09;9.97;;;7.93;;
14789;SDS011;7486;51.010;10.366;2023-04-30T01:46:05;8.33;;;6.97;;
14789;SDS011;7486;51.010;10.366;2023-04-30T01:51:52;9.17;;;8.13;;
14789;SDS011;7486;51.010;10.366;2023-04-30T01:55:01;8.93;;;8.03;;
14789;SDS011;7486;51.010;10.366;2023-04-30T01:57:59;10.10;;;8.70;;
14789;SDS011;7486;51.010;10.366;2023-04-30T02:00:47;9.00;;;8.10;;
14789;SDS011;7486;51.010;10.366;2023-04-30T02:03:32;9.07;;;7.97;;
14789;SDS011;7486;51.010;10.366;2023-04-30T02:06:17;8.57;;;7.67;;
14789;SDS011;7486;51.010;10.366;2023-04-30T02:09:03;9.77;;;7.63;;
14789;SDS011;7486;51.010;10.366;2023-04-30T02:11:49;8.30;;;7.50;;
14789;SDS011;7486;51.010;10.366;2023-04-30T02:14:34;9.43;;;8.43;;
14789;SDS011;7486;51.010;10.366;2023-04-30T02:17:20;9.83;;;7.77;;
14789;SDS011;7486;51.010;10.366;2023-04-30T02:20:06;10.00;;;7.70;;
14789;SDS011;7486;51.010;10.366;2023-04-30T02:22:52;8.83;;;7.37;;
14789;SDS011;7486;51.010;10.366;2023-04-30T02:25:37;9.10;;;7.77;;
14789;SDS011;7486;51.010;10.366;2023-04-30T02:28:23;9.53;;;7.80;;
14789;SDS011;7486;51.010;10.366;2023-04-30T02:31:09;8.80;;;7.43;;
14789;SDS011;7486;51.010;10.366;2023-04-30T02:33:54;7.30;;;6.40;;
14789;SDS011;7486;51.010;10.366;2023-04-30T02:36:40;8.50;;;7.27;;
14789;SDS011;7486;51.010;10.366;2023-04-30T02:39:25;7.43;;;6.73;;
14789;SDS011;7486;51.010;10.366;2023-04-30T02:42:11;9.50;;;8.40;;
14789;SDS011;7486;51.010;10.366;2023-04-30T02:44:56;10.83;;;7.70;;
14789;SDS011;7486;51.010;10.366;2023-04-30T02:47:42;7.43;;;6.73;;
14789;SDS011;7486;51.010;10.366;2023-04-30T02:50:27;8.00;;;6.80;;
14789;SDS011;7486;51.010;10.366;2023-04-30T02:53:13;7.67;;;6.87;;
14789;SDS011;7486;51.010;10.366;2023-04-30T02:55:58;8.17;;;7.23;;
14789;SDS011;7486;51.010;10.366;2023-04-30T02:58:44;7.80;;;7.00;;
14789;SDS011;7486;51.010;10.366;2023-04-30T03:01:29;7.80;;;7.00;;
14789;SDS011;7486;51.010;10.366;2023-04-30T03:04:15;8.00;;;7.20;;
14789;SDS011;7486;51.010;10.366;2023-04-30T03:07:00;7.30;;;6.60;;
14789;SDS011;7486;51.010;10.366;2023-04-30T03:09:46;6.23;;;5.63;;
14789;SDS011;7486;51.010;10.366;2023-04-30T03:12:31;7.47;;;6.67;;
14789;SDS011;7486;51.010;10.366;2023-04-30T03:15:17;6.97;;;6.30;;
14789;SDS011;7486;51.010;10.366;2023-04-30T03:18:02;7.20;;;6.50;;
14789;SDS011;7486;51.010;10.366;2023-04-30T03:20:48;7.50;;;6.23;;
14789;SDS011;7486;51.010;10.366;2023-04-30T03:23:34;8.23;;;7.23;;
14789;SDS011;7486;51.010;10.366;2023-04-30T03:26:19;9.23;;;7.87;;
14789;SDS011;7486;51.010;10.366;2023-04-30T03:29:04;6.87;;;6.17;;
14789;SDS011;7486;51.010;10.366;2023-04-30T03:31:50;6.43;;;5.83;;
14789;SDS011;7486;51.010;10.366;2023-04-30T03:34:36;7.50;;;6.17;;
14789;SDS011;7486;51.010;10.366;2023-04-30T03:37:22;9.33;;;7.00;;
14789;SDS011;7486;51.010;10.366;2023-04-30T03:40:08;8.13;;;7.33;;
14789;SDS011;7486;51.010;10.366;2023-04-30T03:42:54;9.50;;;7.97;;
14789;SDS011;7486;51.010;10.366;2023-04-30T03:45:39;9.20;;;8.07;;
14789;SDS011;7486;51.010;10.366;2023-04-30T03:48:25;10.77;;;8.30;;
14789;SDS011;7486;51.010;10.366;2023-04-30T03:51:11;8.77;;;7.20;;
14789;SDS011;7486;51.010;10.366;2023-04-30T03:53:56;7.13;;;6.13;;
14789;SDS011;7486;51.010;10.366;2023-04-30T03:56:41;7.20;;;6.50;;
14789;SDS011;7486;51.010;10.366;2023-04-30T03:59:27;7.47;;;6.60;;
14789;SDS011;7486;51.010;10.366;2023-04-30T04:02:13;7.87;;;7.07;;
14789;SDS011;7486;51.010;10.366;2023-04-30T04:04:58;9.17;;;7.37;;
14789;SDS011;7486;51.010;10.366;2023-04-30T04:07:43;7.70;;;7.00;;
14789;SDS011;7486;51.010;10.366;2023-04-30T04:10:29;7.93;;;7.13;;
14789;SDS011;7486;51.010;10.366;2023-04-30T04:13:14;7.43;;;6.73;;
14789;SDS011;7486;51.010;10.366;2023-04-30T04:16:00;7.53;;;6.73;;
14789;SDS011;7486;51.010;10.366;2023-04-30T04:18:45;6.30;;;5.30;;
14789;SDS011;7486;51.010;10.366;2023-04-30T04:21:31;5.33;;;4.77;;
14789;SDS011;7486;51.010;10.366;2023-04-30T04:24:18;5.60;;;5.00;;
14789;SDS011;7486;51.010;10.366;2023-04-30T04:27:03;6.00;;;5.40;;
14789;SDS011;7486;51.010;10.366;2023-04-30T04:29:50;6.30;;;5.70;;
14789;SDS011;7486;51.010;10.366;2023-04-30T04:32:35;5.63;;;5.13;;
14789;SDS011;7486;51.010;10.366;2023-04-30T04:35:21;6.47;;;5.80;;
14789;SDS011;7486;51.010;10.366;2023-04-30T04:38:07;5.53;;;5.00;;
14789;SDS011;7486;51.010;10.366;2023-04-30T04:40:52;6.57;;;5.77;;
14789;SDS011;7486;51.010;10.366;2023-04-30T04:43:39;6.50;;;5.87;;
14789;SDS011;7486;51.010;10.366;2023-04-30T04:46:25;6.20;;;5.60;;
14789;SDS011;7486;51.010;10.366;2023-04-30T04:49:11;6.33;;;5.70;;
14789;SDS011;7486;51.010;10.366;2023-04-30T04:51:56;5.60;;;5.10;;
14789;SDS011;7486;51.010;10.366;2023-04-30T04:54:42;5.20;;;4.70;;
14789;SDS011;7486;51.010;10.366;2023-04-30T04:57:28;5.80;;;5.30;;
14789;SDS011;7486;51.010;10.366;2023-04-30T05:00:14;5.80;;;4.37;;
14789;SDS011;7486;51.010;10.366;2023-04-30T05:03:00;4.90;;;4.50;;
14789;SDS011;7486;51.010;10.366;2023-04-30T05:05:46;5.87;;;5.37;;
14789;SDS011;7486;51.010;10.366;2023-04-30T05:08:31;7.07;;;5.60;;
14789;SDS011;7486;51.010;10.366;2023-04-30T05:11:17;6.77;;;6.03;;
14789;SDS011;7486;51.010;10.366;2023-04-30T05:14:02;7.17;;;6.03;;
14789;SDS011;7486;51.010;10.366;2023-04-30T05:16:47;6.53;;;5.90;;
14789;SDS011;7486;51.010;10.366;2023-04-30T05:19:33;6.40;;;5.80;;
14789;SDS011;7486;51.010;10.366;2023-04-30T05:22:18;6.60;;;5.68;;
14789;SDS011;7486;51.010;10.366;2023-04-30T05:25:03;6.07;;;5.47;;
14789;SDS011;7486;51.010;10.366;2023-04-30T05:27:49;6.07;;;5.47;;
14789;SDS011;7486;51.010;10.366;2023-04-30T05:30:35;6.20;;;5.43;;
14789;SDS011;7486;51.010;10.366;2023-04-30T05:33:20;5.90;;;5.30;;
14789;SDS011;7486;51.010;10.366;2023-04-30T05:36:06;6.38;;;5.25;;
14789;SDS011;7486;51.010;10.366;2023-04-30T05:38:51;5.82;;;5.15;;
14789;SDS011;7486;51.010;10.366;2023-04-30T05:41:36;6.03;;;5.43;;
14789;SDS011;7486;51.010;10.366;2023-04-30T05:44:22;5.90;;;5.40;;
14789;SDS011;7486;51.010;10.366;2023-04-30T05:47:07;5.97;;;5.40;;
14789;SDS011;7486;51.010;10.366;2023-04-30T05:49:53;5.80;;;5.20;;
14789;SDS011;7486;51.010;10.366;2023-04-30T05:52:38;5.80;;;5.20;;
14789;SDS011;7486;51.010;10.366;2023-04-30T05:55:24;6.85;;;5.40;;
14789;SDS011;7486;51.010;10.366;2023-04-30T05:58:09;5.72;;;5.00;;
14789;SDS011;7486;51.010;10.366;2023-04-30T06:00:54;5.45;;;4.95;;
14789;SDS011;7486;51.010;10.366;2023-04-30T06:03:40;5.80;;;4.90;;
14789;SDS011;7486;51.010;10.366;2023-04-30T06:06:25;5.82;;;4.38;;
14789;SDS011;7486;51.010;10.366;2023-04-30T06:09:11;6.50;;;4.60;;
14789;SDS011;7486;51.010;10.366;2023-04-30T06:11:56;4.82;;;4.03;;
14789;SDS011;7486;51.010;10.366;2023-04-30T06:14:42;5.05;;;3.90;;
14789;SDS011;7486;51.010;10.366;2023-04-30T06:17:27;5.25;;;3.55;;
14789;SDS011;7486;51.010;10.366;2023-04-30T06:20:12;3.75;;;3.30;;
14789;SDS011;7486;51.010;10.366;2023-04-30T06:22:58;6.43;;;3.50;;
14789;SDS011;7486;51.010;10.366;2023-04-30T06:25:43;4.78;;;3.85;;
14789;SDS011;7486;51.010;10.366;2023-04-30T06:28:29;6.53;;;4.10;;
14789;SDS011;7486;51.010;10.366;2023-04-30T06:31:17;5.90;;;4.45;;
14789;SDS011;7486;51.010;10.366;2023-04-30T06:34:02;5.18;;;4.28;;
14789;SDS011;7486;51.010;10.366;2023-04-30T06:36:48;5.32;;;4.53;;
14789;SDS011;7486;51.010;10.366;2023-04-30T06:39:33;6.90;;;4.95;;
14789;SDS011;7486;51.010;10.366;2023-04-30T06:42:19;7.05;;;5.45;;
14789;SDS011;7486;51.010;10.366;2023-04-30T06:45:04;7.40;;;6.20;;
14789;SDS011;7486;51.010;10.366;2023-04-30T06:47:50;7.07;;;6.38;;
14789;SDS011;7486;51.010;10.366;2023-04-30T06:50:35;8.13;;;6.38;;
14789;SDS011;7486;51.010;10.366;2023-04-30T06:53:21;9.65;;;8.15;;
14789;SDS011;7486;51.010;10.366;2023-04-30T06:56:06;10.43;;;8.80;;
14789;SDS011;7486;51.010;10.366;2023-04-30T06:58:52;9.50;;;8.50;;
14789;SDS011;7486;51.010;10.366;2023-04-30T07:01:37;11.80;;;9.10;;
14789;SDS011;7486;51.010;10.366;2023-04-30T07:04:23;12.57;;;9.15;;
14789;SDS011;7486;51.010;10.366;2023-04-30T07:07:08;12.90;;;10.70;;
14789;SDS011;7486;51.010;10.366;2023-04-30T07:09:53;13.87;;;11.93;;
14789;SDS011;7486;51.010;10.366;2023-04-30T07:12:39;13.07;;;11.57;;
14789;SDS011;7486;51.010;10.366;2023-04-30T07:15:25;14.23;;;11.80;;
14789;SDS011;7486;51.010;10.366;2023-04-30T07:18:10;13.87;;;12.30;;
14789;SDS011;7486;51.010;10.366;2023-04-30T07:20:56;14.27;;;11.60;;
14789;SDS011;7486;51.010;10.366;2023-04-30T07:23:41;14.73;;;11.60;;
14789;SDS011;7486;51.010;10.366;2023-04-30T07:26:27;14.47;;;12.00;;
14789;SDS011;7486;51.010;10.366;2023-04-30T07:29:12;13.30;;;11.90;;
14789;SDS011;7486;51.010;10.366;2023-04-30T07:31:57;12.63;;;10.87;;
14789;SDS011;7486;51.010;10.366;2023-04-30T07:34:43;11.73;;;10.53;;
14789;SDS011;7486;51.010;10.366;2023-04-30T07:37:29;11.73;;;10.53;;
14789;SDS011;7486;51.010;10.366;2023-04-30T07:40:19;11.83;;;10.57;;
14789;SDS011;7486;51.010;10.366;2023-04-30T07:43:19;12.30;;;10.30;;
14789;SDS011;7486;51.010;10.366;2023-04-30T07:46:04;11.15;;;9.75;;
14789;SDS011;7486;51.010;10.366;2023-04-30T07:48:55;10.63;;;9.53;;
14789;SDS011;7486;51.010;10.366;2023-04-30T07:51:41;12.10;;;9.73;;
14789;SDS011;7486;51.010;10.366;2023-04-30T07:54:27;10.87;;;9.87;;
14789;SDS011;7486;51.010;10.366;2023-04-30T07:57:12;9.47;;;8.40;;
14789;SDS011;7486;51.010;10.366;2023-04-30T07:59:57;10.60;;;9.13;;
14789;SDS011;7486;51.010;10.366;2023-04-30T08:02:43;9.63;;;8.65;;
14789;SDS011;7486;51.010;10.366;2023-04-30T08:05:29;10.63;;;9.57;;
14789;SDS011;7486;51.010;10.366;2023-04-30T08:08:14;10.15;;;9.05;;
14789;SDS011;7486;51.010;10.366;2023-04-30T08:11:00;9.85;;;8.85;;
14789;SDS011;7486;51.010;10.366;2023-04-30T08:13:45;11.32;;;9.23;;
14789;SDS011;7486;51.010;10.366;2023-04-30T08:16:31;9.63;;;8.63;;
14789;SDS011;7486;51.010;10.366;2023-04-30T08:19:16;9.75;;;8.57;;
14789;SDS011;7486;51.010;10.366;2023-04-30T08:22:01;10.82;;;8.80;;
14789;SDS011;7486;51.010;10.366;2023-04-30T08:24:47;9.68;;;8.45;;
14789;SDS011;7486;51.010;10.366;2023-04-30T08:27:32;9.05;;;8.10;;
14789;SDS011;7486;51.010;10.366;2023-04-30T08:30:18;12.93;;;7.93;;
14789;SDS011;7486;51.010;10.366;2023-04-30T08:33:03;8.77;;;7.88;;
14789;SDS011;7486;51.010;10.366;2023-04-30T08:35:49;9.38;;;8.40;;
14789;SDS011;7486;51.010;10.366;2023-04-30T08:38:35;8.88;;;7.55;;
14789;SDS011;7486;51.010;10.366;2023-04-30T08:41:21;8.75;;;7.78;;
14789;SDS011;7486;51.010;10.366;2023-04-30T08:44:10;7.68;;;6.75;;
14789;SDS011;7486;51.010;10.366;2023-04-30T08:46:56;8.05;;;7.18;;
14789;SDS011;7486;51.010;10.366;2023-04-30T08:49:41;8.15;;;7.35;;
14789;SDS011;7486;51.010;10.366;2023-04-30T08:52:27;7.65;;;6.90;;
14789;SDS011;7486;51.010;10.366;2023-04-30T08:55:14;8.20;;;6.78;;
14789;SDS011;7486;51.010;10.366;2023-04-30T08:57:59;7.13;;;6.43;;
14789;SDS011;7486;51.010;10.366;2023-04-30T09:00:45;7.75;;;6.18;;
14789;SDS011;7486;51.010;10.366;2023-04-30T09:03:30;9.93;;;7.10;;
14789;SDS011;7486;51.010;10.366;2023-04-30T09:06:16;7.05;;;6.20;;
14789;SDS011;7486;51.010;10.366;2023-04-30T09:09:11;7.35;;;6.57;;
14789;SDS011;7486;51.010;10.366;2023-04-30T09:12:14;7.70;;;6.95;;
14789;SDS011;7486;51.010;10.366;2023-04-30T09:15:04;8.00;;;7.20;;
14789;SDS011;7486;51.010;10.366;2023-04-30T09:17:49;7.75;;;6.80;;
14789;SDS011;7486;51.010;10.366;2023-04-30T09:20:35;7.88;;;6.55;;
14789;SDS011;7486;51.010;10.366;2023-04-30T09:23:21;6.95;;;6.28;;
14789;SDS011;7486;51.010;10.366;2023-04-30T09:26:06;7.65;;;6.32;;
14789;SDS011;7486;51.010;10.366;2023-04-30T09:28:55;6.80;;;6.18;;
14789;SDS011;7486;51.010;10.366;2023-04-30T09:31:42;7.25;;;6.55;;
14789;SDS011;7486;51.010;10.366;2023-04-30T09:34:34;6.55;;;5.95;;
14789;SDS011;7486;51.010;10.366;2023-04-30T09:37:19;6.97;;;6.25;;
14789;SDS011;7486;51.010;10.366;2023-04-30T09:40:05;7.35;;;6.60;;
14789;SDS011;7486;51.010;10.366;2023-04-30T09:42:58;7.50;;;6.70;;
14789;SDS011;7486;51.010;10.366;2023-04-30T09:45:44;6.72;;;6.13;;
14789;SDS011;7486;51.010;10.366;2023-04-30T09:48:31;6.95;;;6.28;;
14789;SDS011;7486;51.010;10.366;2023-04-30T09:51:16;6.13;;;5.53;;
14789;SDS011;7486;51.010;10.366;2023-04-30T09:54:02;6.57;;;5.85;;
14789;SDS011;7486;51.010;10.366;2023-04-30T09:56:47;5.40;;;4.90;;
14789;SDS011;7486;51.010;10.366;2023-04-30T09:59:37;8.50;;;5.57;;
14789;SDS011;7486;51.010;10.366;2023-04-30T10:02:27;5.43;;;4.88;;
14789;SDS011;7486;51.010;10.366;2023-04-30T10:05:13;6.68;;;5.35;;
14789;SDS011;7486;51.010;10.366;2023-04-30T10:07:59;5.75;;;5.10;;
14789;SDS011;7486;51.010;10.366;2023-04-30T10:10:45;5.70;;;5.07;;
14789;SDS011;7486;51.010;10.366;2023-04-30T10:13:39;5.82;;;5.22;;
14789;SDS011;7486;51.010;10.366;2023-04-30T10:19:45;6.30;;;5.35;;
14789;SDS011;7486;51.010;10.366;2023-04-30T10:22:33;5.28;;;4.78;;
14789;SDS011;7486;51.010;10.366;2023-04-30T10:25:19;6.40;;;4.72;;
14789;SDS011;7486;51.010;10.366;2023-04-30T10:28:05;6.40;;;4.90;;
14789;SDS011;7486;51.010;10.366;2023-04-30T10:30:52;5.90;;;5.07;;
14789;SDS011;7486;51.010;10.366;2023-04-30T10:36:55;5.35;;;4.85;;
14789;SDS011;7486;51.010;10.366;2023-04-30T10:39:44;5.20;;;4.70;;
14789;SDS011;7486;51.010;10.366;2023-04-30T10:42:31;5.65;;;4.50;;
14789;SDS011;7486;51.010;10.366;2023-04-30T10:45:19;5.30;;;4.80;;
14789;SDS011;7486;51.010;10.366;2023-04-30T10:48:21;6.65;;;4.43;;
14789;SDS011;7486;51.010;10.366;2023-04-30T10:51:07;5.30;;;4.30;;
14789;SDS011;7486;51.010;10.366;2023-04-30T10:53:53;5.57;;;4.28;;
14789;SDS011;7486;51.010;10.366;2023-04-30T10:56:39;4.63;;;4.22;;
14789;SDS011;7486;51.010;10.366;2023-04-30T10:59:26;5.15;;;4.65;;
14789;SDS011;7486;51.010;10.366;2023-04-30T11:02:14;4.97;;;4.10;;
14789;SDS011;7486;51.010;10.366;2023-04-30T11:07:57;4.72;;;4.32;;
14789;SDS011;7486;51.010;10.366;2023-04-30T11:10:56;4.68;;;4.28;;
14789;SDS011;7486;51.010;10.366;2023-04-30T11:13:45;5.05;;;4.43;;
14789;SDS011;7486;51.010;10.366;2023-04-30T11:16:35;4.78;;;4.22;;
14789;SDS011;7486;51.010;10.366;2023-04-30T11:19:20;4.60;;;4.20;;
14789;SDS011;7486;51.010;10.366;2023-04-30T11:24:52;4.20;;;3.80;;
14789;SDS011;7486;51.010;10.366;2023-04-30T11:27:44;4.10;;;3.42;;
14789;SDS011;7486;51.010;10.366;2023-04-30T11:30:30;4.07;;;3.30;;
14789;SDS011;7486;51.010;10.366;2023-04-30T11:33:17;3.58;;;3.28;;
14789;SDS011;7486;51.010;10.366;2023-04-30T11:36:03;3.50;;;3.20;;
14789;SDS011;7486;51.010;10.366;2023-04-30T11:38:48;3.40;;;3.10;;
14789;SDS011;7486;51.010;10.366;2023-04-30T11:41:39;3.13;;;2.88;;
14789;SDS011;7486;51.010;10.366;2023-04-30T11:44:25;5.00;;;3.38;;
14789;SDS011;7486;51.010;10.366;2023-04-30T11:47:14;3.30;;;3.00;;
14789;SDS011;7486;51.010;10.366;2023-04-30T11:50:00;3.13;;;2.83;;
14789;SDS011;7486;51.010;10.366;2023-04-30T11:52:49;3.88;;;3.38;;
14789;SDS011;7486;51.010;10.366;2023-04-30T11:55:34;3.67;;;3.30;;
14789;SDS011;7486;51.010;10.366;2023-04-30T11:58:20;3.63;;;3.00;;
14789;SDS011;7486;51.010;10.366;2023-04-30T12:01:06;2.95;;;2.60;;
14789;SDS011;7486;51.010;10.366;2023-04-30T12:03:54;2.75;;;2.53;;
14789;SDS011;7486;51.010;10.366;2023-04-30T12:06:40;3.15;;;2.90;;
14789;SDS011;7486;51.010;10.366;2023-04-30T12:09:25;3.50;;;3.20;;
14789;SDS011;7486;51.010;10.366;2023-04-30T12:12:11;5.32;;;3.50;;
14789;SDS011;7486;51.010;10.366;2023-04-30T12:14:56;3.67;;;3.38;;
14789;SDS011;7486;51.010;10.366;2023-04-30T12:17:42;3.92;;;3.15;;
14789;SDS011;7486;51.010;10.366;2023-04-30T12:20:29;3.55;;;3.25;;
14789;SDS011;7486;51.010;10.366;2023-04-30T12:23:16;3.40;;;3.10;;
14789;SDS011;7486;51.010;10.366;2023-04-30T12:26:02;5.32;;;3.50;;
14789;SDS011;7486;51.010;10.366;2023-04-30T12:28:47;4.15;;;3.30;;
14789;SDS011;7486;51.010;10.366;2023-04-30T12:31:33;3.67;;;3.30;;
14789;SDS011;7486;51.010;10.366;2023-04-30T12:34:18;5.47;;;3.80;;
14789;SDS011;7486;51.010;10.366;2023-04-30T12:37:04;4.63;;;4.13;;
14789;SDS011;7486;51.010;10.366;2023-04-30T12:39:50;5.35;;;4.03;;
14789;SDS011;7486;51.010;10.366;2023-04-30T12:42:36;5.40;;;3.88;;
14789;SDS011;7486;51.010;10.366;2023-04-30T12:48:27;4.28;;;3.55;;
14789;SDS011;7486;51.010;10.366;2023-04-30T12:51:18;4.13;;;3.33;;
14789;SDS011;7486;51.010;10.366;2023-04-30T12:54:03;3.67;;;2.78;;
14789;SDS011;7486;51.010;10.366;2023-04-30T12:56:56;4.22;;;3.83;;
14789;SDS011;7486;51.010;10.366;2023-04-30T13:02:37;4.07;;;3.55;;
14789;SDS011;7486;51.010;10.366;2023-04-30T13:05:22;3.80;;;3.50;;
14789;SDS011;7486;51.010;10.366;2023-04-30T13:08:07;4.20;;;3.80;;
14789;SDS011;7486;51.010;10.366;2023-04-30T13:10:53;5.30;;;3.90;;
14789;SDS011;7486;51.010;10.366;2023-04-30T13:13:38;3.85;;;3.47;;
14789;SDS011;7486;51.010;10.366;2023-04-30T13:16:23;3.90;;;3.40;;
14789;SDS011;7486;51.010;10.366;2023-04-30T13:19:10;5.40;;;3.53;;
14789;SDS011;7486;51.010;10.366;2023-04-30T13:21:55;4.95;;;3.70;;
14789;SDS011;7486;51.010;10.366;2023-04-30T13:24:41;4.85;;;3.75;;
14789;SDS011;7486;51.010;10.366;2023-04-30T13:27:26;4.95;;;3.83;;
14789;SDS011;7486;51.010;10.366;2023-04-30T13:30:12;3.97;;;3.58;;
14789;SDS011;7486;51.010;10.366;2023-04-30T13:32:57;4.10;;;3.70;;
14789;SDS011;7486;51.010;10.366;2023-04-30T13:35:43;4.00;;;3.55;;
14789;SDS011;7486;51.010;10.366;2023-04-30T13:38:28;3.65;;;3.15;;
14789;SDS011;7486;51.010;10.366;2023-04-30T13:41:13;3.58;;;3.10;;
14789;SDS011;7486;51.010;10.366;2023-04-30T13:43:59;3.65;;;3.30;;
14789;SDS011;7486;51.010;10.366;2023-04-30T13:46:44;4.88;;;3.42;;
14789;SDS011;7486;51.010;10.366;2023-04-30T13:49:30;4.38;;;3.40;;
14789;SDS011;7486;51.010;10.366;2023-04-30T13:52:15;3.38;;;3.08;;
14789;SDS011;7486;51.010;10.366;2023-04-30T13:55:00;5.25;;;4.03;;
14789;SDS011;7486;51.010;10.366;2023-04-30T13:57:45;3.95;;;3.38;;
14789;SDS011;7486;51.010;10.366;2023-04-30T14:00:31;4.43;;;3.50;;
14789;SDS011;7486;51.010;10.366;2023-04-30T14:03:17;4.05;;;3.35;;
14789;SDS011;7486;51.010;10.366;2023-04-30T14:06:02;3.95;;;3.55;;
14789;SDS011;7486;51.010;10.366;2023-04-30T14:08:48;4.13;;;2.88;;
14789;SDS011;7486;51.010;10.366;2023-04-30T14:11:33;3.92;;;3.10;;
14789;SDS011;7486;51.010;10.366;2023-04-30T14:14:18;3.42;;;3.13;;
14789;SDS011;7486;51.010;10.366;2023-04-30T14:17:04;3.60;;;3.30;;
14789;SDS011;7486;51.010;10.366;2023-04-30T14:19:49;4.00;;;3.53;;
14789;SDS011;7486;51.010;10.366;2023-04-30T14:22:34;3.35;;;2.97;;
14789;SDS011;7486;51.010;10.366;2023-04-30T14:25:20;3.40;;;3.10;;
14789;SDS011;7486;51.010;10.366;2023-04-30T14:28:05;4.50;;;3.13;;
14789;SDS011;7486;51.010;10.366;2023-04-30T14:30:50;3.95;;;2.75;;
14789;SDS011;7486;51.010;10.366;2023-04-30T14:33:36;4.30;;;3.15;;
14789;SDS011;7486;51.010;10.366;2023-04-30T14:36:21;3.40;;;3.00;;
14789;SDS011;7486;51.010;10.366;2023-04-30T14:39:06;3.70;;;3.00;;
14789;SDS011;7486;51.010;10.366;2023-04-30T14:41:52;3.80;;;3.15;;
14789;SDS011;7486;51.010;10.366;2023-04-30T14:44:38;4.22;;;3.08;;
14789;SDS011;7486;51.010;10.366;2023-04-30T14:47:24;4.75;;;2.97;;
14789;SDS011;7486;51.010;10.366;2023-04-30T14:50:09;3.70;;;3.30;;
14789;SDS011;7486;51.010;10.366;2023-04-30T14:52:54;4.05;;;3.35;;
14789;SDS011;7486;51.010;10.366;2023-04-30T14:55:40;5.10;;;3.38;;
14789;SDS011;7486;51.010;10.366;2023-04-30T14:58:26;3.50;;;2.75;;
14789;SDS011;7486;51.010;10.366;2023-04-30T15:01:12;3.70;;;2.90;;
14789;SDS011;7486;51.010;10.366;2023-04-30T15:03:57;3.40;;;3.10;;
14789;SDS011;7486;51.010;10.366;2023-04-30T15:06:43;4.68;;;3.20;;
14789;SDS011;7486;51.010;10.366;2023-04-30T15:09:29;4.70;;;2.90;;
14789;SDS011;7486;51.010;10.366;2023-04-30T15:12:14;3.25;;;2.70;;
14789;SDS011;7486;51.010;10.366;2023-04-30T15:15:00;4.28;;;3.10;;
14789;SDS011;7486;51.010;10.366;2023-04-30T15:17:46;3.45;;;2.90;;
14789;SDS011;7486;51.010;10.366;2023-04-30T15:20:32;3.35;;;2.80;;
14789;SDS011;7486;51.010;10.366;2023-04-30T15:23:17;3.00;;;2.70;;
14789;SDS011;7486;51.010;10.366;2023-04-30T15:26:03;3.05;;;2.60;;
14789;SDS011;7486;51.010;10.366;2023-04-30T15:28:49;5.35;;;2.63;;
14789;SDS011;7486;51.010;10.366;2023-04-30T15:31:34;3.13;;;2.83;;
14789;SDS011;7486;51.010;10.366;2023-04-30T15:34:20;2.97;;;2.58;;
14789;SDS011;7486;51.010;10.366;2023-04-30T15:37:05;3.03;;;2.67;;
14789;SDS011;7486;51.010;10.366;2023-04-30T15:39:52;3.67;;;2.88;;
14789;SDS011;7486;51.010;10.366;2023-04-30T15:42:37;4.30;;;2.47;;
14789;SDS011;7486;51.010;10.366;2023-04-30T15:45:23;3.47;;;2.20;;
14789;SDS011;7486;51.010;10.366;2023-04-30T15:48:08;3.28;;;2.20;;
14789;SDS011;7486;51.010;10.366;2023-04-30T15:50:53;2.25;;;2.03;;
14789;SDS011;7486;51.010;10.366;2023-04-30T15:53:38;4.80;;;2.20;;
14789;SDS011;7486;51.010;10.366;2023-04-30T15:56:24;2.25;;;1.70;;
14789;SDS011;7486;51.010;10.366;2023-04-30T15:59:09;4.03;;;2.10;;
14789;SDS011;7486;51.010;10.366;2023-04-30T16:01:54;2.47;;;1.80;;
14789;SDS011;7486;51.010;10.366;2023-04-30T16:04:39;4.65;;;1.83;;
14789;SDS011;7486;51.010;10.366;2023-04-30T16:07:24;2.47;;;1.73;;
14789;SDS011;7486;51.010;10.366;2023-04-30T16:10:10;2.55;;;1.67;;
14789;SDS011;7486;51.010;10.366;2023-04-30T16:12:55;2.78;;;1.67;;
14789;SDS011;7486;51.010;10.366;2023-04-30T16:15:41;2.22;;;1.50;;
14789;SDS011;7486;51.010;10.366;2023-04-30T16:18:26;2.22;;;1.40;;
14789;SDS011;7486;51.010;10.366;2023-04-30T16:21:12;3.53;;;1.42;;
14789;SDS011;7486;51.010;10.366;2023-04-30T16:23:57;3.08;;;1.60;;
14789;SDS011;7486;51.010;10.366;2023-04-30T16:26:42;2.75;;;1.42;;
14789;SDS011;7486;51.010;10.366;2023-04-30T16:29:27;2.63;;;1.30;;
14789;SDS011;7486;51.010;10.366;2023-04-30T16:32:13;3.30;;;1.35;;
14789;SDS011;7486;51.010;10.366;2023-04-30T16:34:58;4.28;;;1.40;;
14789;SDS011;7486;51.010;10.366;2023-04-30T16:37:44;2.55;;;1.20;;
14789;SDS011;7486;51.010;10.366;2023-04-30T16:40:29;3.03;;;1.50;;
14789;SDS011;7486;51.010;10.366;2023-04-30T16:43:15;4.80;;;1.15;;
14789;SDS011;7486;51.010;10.366;2023-04-30T16:46:00;2.38;;;1.40;;
14789;SDS011;7486;51.010;10.366;2023-04-30T16:48:46;3.70;;;1.38;;
14789;SDS011;7486;51.010;10.366;2023-04-30T16:51:31;3.80;;;1.45;;
14789;SDS011;7486;51.010;10.366;2023-04-30T16:54:16;1.70;;;1.27;;
14789;SDS011;7486;51.010;10.366;2023-04-30T16:57:01;2.50;;;1.30;;
14789;SDS011;7486;51.010;10.366;2023-04-30T16:59:47;1.98;;;1.33;;
14789;SDS011;7486;51.010;10.366;2023-04-30T17:02:33;5.00;;;1.45;;
14789;SDS011;7486;51.010;10.366;2023-04-30T17:05:18;3.70;;;1.50;;